Terminal Aerodrome Forecast
Issued by NWS

Home | Current Version | Previous Version | Text Only | Print | Product List | Glossary On
Versions: 1 2 3 4 5 6 7 8 9 10 11 12 13 14 15 16 17 18 19 20 21 22 23 24 25 26 27 28 29 30 31 32 33 34 35
000
FTUS45 KGJT 241818 AAA
TAFDRO
TAF AMD
KDRO 241818Z 2418/2518 30018KT P6SM BKN050 OVC080
      TEMPO 2418/2420 30015G30KT 2SM -SN BR FEW030 BKN045 OVC060
     FM250300 28008KT P6SM FEW200
     FM251100 VRB03KT P6SM FEW200
     FM251400 11004KT P6SM SCT150=

USA.gov is the U.S. government's official web portal to all federal, state and local government web resources and services.